Disclaimer

Please do not use the information listed here in-flight or in-navigation, as they are not provided to us by the airports but are provided by volunteers, so they might be outdated.

Search


Regions


Airport information page

Radio informations:
Common traffic adv. frequency (CTAF) - 122.5 MHz
TORONTO CNTR - 133.725 MHz
AWOS - 124.8 MHz

Airport informations:
Latitude: 51° 17' 28.00" N
Longitude: 080° 36' 28.00" W
Elevation: 30 feet - 9 meters
Operating hours: N/A
Operating agency: Civil government, landing fees and diplomatic clearance may be required
Timezone: Second Sunday in March at 0200 to first Sunday in November at 0200 local time (Exception Arizona and that portion of Indiana in the Eastern Time Zone)
Fuel: Jet B, Wide cut turbine fuel, Without icing inhibitor.

100/130 octane gasoline, leaded, MIL-L-5572F (GREEN)

Runway information:
06/24 - 4000 x 100 feet< - >1219 x 30 meters
14/32 - 3500 x 100 feet< - >1067 x 30 meters

Recent METARs:
CYMO 181704Z AUTO 25011KT 1 3/4SM -SN SCT018 OVC023 M12/M15 A2994 RMK SLP141
CYMO 181716Z AUTO 25011G16KT 3SM -SN FEW013 BKN029 OVC048 M12/M16 A2994 RMK SLP141
CYMO 181754Z AUTO 24011G16KT 2 1/2SM -SN FEW019 BKN031 OVC040 M12/M15 A2994 RMK SLP141

Airport on the map: